DLH6HE EDDF-LHBP
Flight info
| Callsign | DLH6HE |
|---|---|
| Flight time | 1h 6m |
| Altitude | 31000 |
| Route | SULUS7S/18 SULUS Z650 VEMUT/N0439F350 DCT PEPIK DCT NIT/N0386F230 M748 ARFOX |
| Aircraft | A321/M-SDE3FGHIRWY/LB1 |
Departure
| Time | 2026-05-04 16:31 |
|---|---|
| Airport | Frankfurt Main Airport (EDDF) |
Arrival
| Time | 2026-05-04 17:37 |
|---|---|
| Airport | Budapest Liszt Ferenc International Airport (LHBP) |
| Time | Latitude | Longitude | Altitude | Speed | Heading |
|---|---|---|---|---|---|
| 2026-05-04 16:04 | 50.04418 | 8.56275 | 358 ft | 0 kts | 162° |
| 2026-05-04 16:18 | 50.04481 | 8.56250 | 360 ft | 4 kts | 206° |
| 2026-05-04 16:18 | 50.04492 | 8.56277 | 362 ft | 4 kts | 256° |
| 2026-05-04 16:19 | 50.04515 | 8.56379 | 360 ft | 0 kts | 250° |
| 2026-05-04 16:23 | 50.04445 | 8.56084 | 358 ft | 17 kts | 247° |
| 2026-05-04 16:24 | 50.04268 | 8.56045 | 362 ft | 4 kts | 234° |
| 2026-05-04 16:25 | 50.04218 | 8.55851 | 359 ft | 15 kts | 249° |
| 2026-05-04 16:26 | 50.03996 | 8.54925 | 359 ft | 25 kts | 249° |
| 2026-05-04 16:26 | 50.03847 | 8.54344 | 352 ft | 16 kts | 236° |
| 2026-05-04 16:27 | 50.03744 | 8.53992 | 353 ft | 20 kts | 248° |
| 2026-05-04 16:28 | 50.03581 | 8.53322 | 336 ft | 24 kts | 249° |
| 2026-05-04 16:28 | 50.03422 | 8.52671 | 335 ft | 9 kts | 249° |
| 2026-05-04 16:29 | 50.03295 | 8.52596 | 333 ft | 0 kts | 176° |
| 2026-05-04 16:30 | 50.03264 | 8.52598 | 334 ft | 24 kts | 179° |
| 2026-05-04 16:31 | 50.01874 | 8.52608 | 335 ft | 164 kts | 179° |
| 2026-05-04 16:31 | 49.98229 | 8.52696 | 2078 ft | 189 kts | 181° |
| 2026-05-04 16:32 | 49.94995 | 8.57247 | 3314 ft | 241 kts | 119° |
| 2026-05-04 16:33 | 49.93976 | 8.62284 | 4522 ft | 265 kts | 94° |
| 2026-05-04 16:33 | 49.93689 | 8.67200 | 5625 ft | 275 kts | 107° |
| 2026-05-04 16:34 | 49.91610 | 8.71927 | 7202 ft | 269 kts | 147° |
| 2026-05-04 16:34 | 49.90081 | 8.73617 | 7973 ft | 270 kts | 148° |
| 2026-05-04 16:35 | 49.86548 | 8.80672 | 10197 ft | 287 kts | 123° |
| 2026-05-04 16:35 | 49.83326 | 8.89564 | 10975 ft | 342 kts | 123° |
| 2026-05-04 16:36 | 49.82153 | 8.92812 | 11550 ft | 347 kts | 122° |
| 2026-05-04 16:36 | 49.79759 | 8.99419 | 12777 ft | 355 kts | 122° |
| 2026-05-04 16:37 | 49.77308 | 9.06128 | 13977 ft | 364 kts | 122° |
| 2026-05-04 16:37 | 49.76205 | 9.09670 | 14533 ft | 369 kts | 112° |
| 2026-05-04 16:37 | 49.74893 | 9.17468 | 15622 ft | 378 kts | 107° |
| 2026-05-04 16:38 | 49.73612 | 9.25442 | 16692 ft | 386 kts | 107° |
| 2026-05-04 16:39 | 49.71605 | 9.37663 | 18252 ft | 397 kts | 107° |
| 2026-05-04 16:39 | 49.70243 | 9.45996 | 19141 ft | 403 kts | 107° |
| 2026-05-04 16:40 | 49.68853 | 9.54452 | 20020 ft | 409 kts | 107° |
| 2026-05-04 16:40 | 49.67524 | 9.63047 | 20906 ft | 416 kts | 101° |
| 2026-05-04 16:41 | 49.67770 | 9.72058 | 21745 ft | 429 kts | 78° |
| 2026-05-04 16:41 | 49.70152 | 9.85525 | 23021 ft | 437 kts | 77° |
| 2026-05-04 16:42 | 49.73591 | 9.98682 | 24101 ft | 448 kts | 56° |
| 2026-05-04 16:43 | 49.77224 | 10.06515 | 24821 ft | 453 kts | 54° |
| 2026-05-04 16:43 | 49.80918 | 10.14483 | 25467 ft | 458 kts | 54° |
| 2026-05-04 16:43 | 49.82774 | 10.18513 | 25815 ft | 461 kts | 55° |
| 2026-05-04 16:44 | 49.90267 | 10.34876 | 27120 ft | 470 kts | 54° |
| 2026-05-04 16:45 | 49.94072 | 10.43186 | 27763 ft | 475 kts | 54° |
| 2026-05-04 16:46 | 49.99825 | 10.55826 | 28766 ft | 480 kts | 54° |
| 2026-05-04 16:46 | 50.03473 | 10.64549 | 29382 ft | 483 kts | 65° |
| 2026-05-04 16:47 | 50.05318 | 10.74583 | 29922 ft | 485 kts | 86° |
| 2026-05-04 16:47 | 50.04912 | 10.84972 | 30349 ft | 482 kts | 106° |
| 2026-05-04 16:48 | 50.01835 | 10.99797 | 31197 ft | 479 kts | 111° |
| 2026-05-04 16:48 | 50.00788 | 11.04699 | 31508 ft | 477 kts | 111° |
| 2026-05-04 16:49 | 49.98701 | 11.14477 | 32130 ft | 476 kts | 111° |
| 2026-05-04 16:49 | 49.96613 | 11.24238 | 32710 ft | 475 kts | 111° |
| 2026-05-04 16:50 | 49.94556 | 11.33926 | 33279 ft | 475 kts | 111° |
| 2026-05-04 16:50 | 49.92510 | 11.43664 | 33830 ft | 475 kts | 109° |
| 2026-05-04 16:51 | 49.90676 | 11.53505 | 34346 ft | 474 kts | 107° |
| 2026-05-04 16:51 | 49.89808 | 11.58434 | 34601 ft | 474 kts | 107° |
| 2026-05-04 16:51 | 49.88146 | 11.68323 | 34964 ft | 473 kts | 102° |
| 2026-05-04 16:52 | 49.87240 | 11.78381 | 34994 ft | 469 kts | 99° |
| 2026-05-04 16:53 | 49.85900 | 11.93406 | 35003 ft | 469 kts | 99° |
| 2026-05-04 16:54 | 49.84079 | 12.13395 | 34996 ft | 469 kts | 99° |
| 2026-05-04 16:55 | 49.81322 | 12.43372 | 34975 ft | 470 kts | 100° |
| 2026-05-04 16:56 | 49.76811 | 12.67505 | 34981 ft | 467 kts | 109° |
| 2026-05-04 16:57 | 49.73912 | 12.81878 | 34969 ft | 467 kts | 109° |
| 2026-05-04 16:58 | 49.70033 | 13.01008 | 34974 ft | 466 kts | 109° |
| 2026-05-04 17:00 | 49.64162 | 13.29610 | 34969 ft | 465 kts | 110° |
| 2026-05-04 17:01 | 49.59217 | 13.53364 | 34975 ft | 465 kts | 110° |
| 2026-05-04 17:02 | 49.55236 | 13.72278 | 34968 ft | 466 kts | 110° |
| 2026-05-04 17:03 | 49.52223 | 13.86504 | 34976 ft | 466 kts | 110° |
| 2026-05-04 17:03 | 49.49180 | 14.00714 | 34968 ft | 466 kts | 110° |
| 2026-05-04 17:04 | 49.45091 | 14.19641 | 34976 ft | 467 kts | 110° |
| 2026-05-04 17:05 | 49.40986 | 14.38568 | 34982 ft | 467 kts | 110° |
| 2026-05-04 17:06 | 49.37881 | 14.52770 | 34975 ft | 467 kts | 110° |
| 2026-05-04 17:07 | 49.35102 | 14.65357 | 34959 ft | 472 kts | 110° |
| 2026-05-04 17:07 | 49.32591 | 14.76640 | 34959 ft | 484 kts | 110° |
| 2026-05-04 17:08 | 49.29285 | 14.91462 | 34957 ft | 494 kts | 110° |
| 2026-05-04 17:09 | 49.27064 | 15.01394 | 34956 ft | 495 kts | 110° |
| 2026-05-04 17:09 | 49.24813 | 15.11367 | 34966 ft | 495 kts | 110° |
| 2026-05-04 17:10 | 49.19142 | 15.36278 | 34984 ft | 497 kts | 110° |
| 2026-05-04 17:11 | 49.16859 | 15.46255 | 34988 ft | 497 kts | 110° |
| 2026-05-04 17:12 | 49.13401 | 15.61205 | 34991 ft | 497 kts | 110° |
| 2026-05-04 17:13 | 49.07638 | 15.86006 | 34991 ft | 497 kts | 110° |
| 2026-05-04 17:14 | 49.02978 | 16.05822 | 34998 ft | 496 kts | 110° |
| 2026-05-04 17:15 | 48.99455 | 16.20665 | 34997 ft | 496 kts | 110° |
| 2026-05-04 17:16 | 48.95134 | 16.38763 | 34993 ft | 496 kts | 110° |
| 2026-05-04 17:17 | 48.90384 | 16.58462 | 34998 ft | 496 kts | 110° |
| 2026-05-04 17:18 | 48.85610 | 16.78121 | 34953 ft | 494 kts | 110° |
| 2026-05-04 17:18 | 48.82622 | 16.87419 | 34970 ft | 491 kts | 127° |
| 2026-05-04 17:19 | 48.78569 | 16.95785 | 34964 ft | 491 kts | 127° |
| 2026-05-04 17:19 | 48.74576 | 17.03954 | 34844 ft | 470 kts | 127° |
| 2026-05-04 17:20 | 48.70670 | 17.11921 | 34356 ft | 481 kts | 127° |
| 2026-05-04 17:20 | 48.66624 | 17.20168 | 33863 ft | 491 kts | 127° |
| 2026-05-04 17:20 | 48.64578 | 17.24334 | 33590 ft | 493 kts | 127° |
| 2026-05-04 17:21 | 48.60480 | 17.32652 | 33055 ft | 493 kts | 127° |
| 2026-05-04 17:21 | 48.56398 | 17.40915 | 32529 ft | 494 kts | 127° |
| 2026-05-04 17:22 | 48.54342 | 17.45063 | 32275 ft | 494 kts | 127° |
| 2026-05-04 17:22 | 48.52282 | 17.49214 | 32138 ft | 494 kts | 127° |
| 2026-05-04 17:23 | 48.46121 | 17.61593 | 31598 ft | 488 kts | 127° |
| 2026-05-04 17:23 | 48.44082 | 17.65678 | 31276 ft | 488 kts | 127° |
| 2026-05-04 17:23 | 48.39951 | 17.73763 | 31389 ft | 486 kts | 132° |
| 2026-05-04 17:24 | 48.37642 | 17.77490 | 31611 ft | 487 kts | 133° |
| 2026-05-04 17:24 | 48.30707 | 17.88427 | 30218 ft | 480 kts | 134° |
| 2026-05-04 17:25 | 48.28406 | 17.92028 | 29534 ft | 476 kts | 134° |
| 2026-05-04 17:25 | 48.23834 | 17.99196 | 28000 ft | 484 kts | 134° |
| 2026-05-04 17:26 | 48.19124 | 18.06578 | 26445 ft | 494 kts | 134° |
| 2026-05-04 17:26 | 48.11942 | 18.17793 | 24255 ft | 499 kts | 134° |
| 2026-05-04 17:27 | 48.07156 | 18.25254 | 22748 ft | 492 kts | 135° |
| 2026-05-04 17:27 | 48.02462 | 18.32537 | 21303 ft | 478 kts | 135° |
| 2026-05-04 17:28 | 47.97893 | 18.39612 | 19679 ft | 467 kts | 135° |
| 2026-05-04 17:29 | 47.91257 | 18.49828 | 17304 ft | 446 kts | 136° |
| 2026-05-04 17:29 | 47.84894 | 18.59617 | 14762 ft | 430 kts | 135° |
| 2026-05-04 17:30 | 47.78720 | 18.69052 | 12377 ft | 416 kts | 136° |
| 2026-05-04 17:31 | 47.74740 | 18.75123 | 10771 ft | 403 kts | 136° |
| 2026-05-04 17:31 | 47.68997 | 18.83871 | 8377 ft | 389 kts | 136° |
| 2026-05-04 17:32 | 47.65267 | 18.89526 | 6817 ft | 378 kts | 136° |
| 2026-05-04 17:33 | 47.60087 | 18.97376 | 5534 ft | 315 kts | 136° |
| 2026-05-04 17:33 | 47.58646 | 18.99649 | 5115 ft | 291 kts | 135° |
| 2026-05-04 17:34 | 47.54837 | 19.05885 | 3368 ft | 253 kts | 135° |
| 2026-05-04 17:34 | 47.53692 | 19.07750 | 3020 ft | 237 kts | 136° |
| 2026-05-04 17:35 | 47.50747 | 19.12544 | 2185 ft | 185 kts | 136° |
| 2026-05-04 17:35 | 47.49198 | 19.15061 | 1743 ft | 150 kts | 136° |
| 2026-05-04 17:35 | 47.48508 | 19.16178 | 1549 ft | 145 kts | 136° |
| 2026-05-04 17:36 | 47.47838 | 19.17264 | 1359 ft | 141 kts | 136° |
| 2026-05-04 17:36 | 47.47170 | 19.18346 | 1163 ft | 143 kts | 136° |
| 2026-05-04 17:36 | 47.46501 | 19.19431 | 962 ft | 143 kts | 135° |
| 2026-05-04 17:36 | 47.45820 | 19.20535 | 774 ft | 146 kts | 135° |
| 2026-05-04 17:37 | 47.45133 | 19.21648 | 591 ft | 145 kts | 135° |
| 2026-05-04 17:37 | 47.44473 | 19.22725 | 465 ft | 135 kts | 135° |
| 2026-05-04 17:37 | 47.43945 | 19.23572 | 462 ft | 80 kts | 132° |
| 2026-05-04 17:37 | 47.43742 | 19.23947 | 462 ft | 34 kts | 119° |
| 2026-05-04 17:38 | 47.43669 | 19.24264 | 467 ft | 31 kts | 102° |
| 2026-05-04 17:38 | 47.43604 | 19.24508 | 468 ft | 23 kts | 122° |
| 2026-05-04 17:38 | 47.43503 | 19.24691 | 468 ft | 24 kts | 132° |
| 2026-05-04 17:38 | 47.43399 | 19.24858 | 468 ft | 20 kts | 134° |
| 2026-05-04 17:39 | 47.43342 | 19.24951 | 468 ft | 0 kts | 131° |
| 2026-05-04 17:40 | 47.43334 | 19.24965 | 467 ft | 5 kts | 131° |
| 2026-05-04 17:40 | 47.43309 | 19.25009 | 468 ft | 7 kts | 121° |
| 2026-05-04 17:40 | 47.43318 | 19.25118 | 467 ft | 16 kts | 64° |
| 2026-05-04 17:40 | 47.43388 | 19.25241 | 469 ft | 13 kts | 44° |
| 2026-05-04 17:41 | 47.43394 | 19.25250 | 469 ft | 0 kts | 45° |
| 2026-05-04 17:41 | 47.43397 | 19.25254 | 469 ft | 3 kts | 45° |
| 2026-05-04 17:41 | 47.43400 | 19.25305 | 469 ft | 8 kts | 107° |
| 2026-05-04 17:41 | 47.43379 | 19.25411 | 469 ft | 13 kts | 80° |
| 2026-05-04 17:42 | 47.43443 | 19.25521 | 469 ft | 15 kts | 42° |
| 2026-05-04 17:42 | 47.43525 | 19.25631 | 469 ft | 17 kts | 43° |
| 2026-05-04 17:42 | 47.43501 | 19.25775 | 469 ft | 16 kts | 127° |
| 2026-05-04 17:42 | 47.43432 | 19.25918 | 467 ft | 18 kts | 129° |
| 2026-05-04 17:43 | 47.43445 | 19.26010 | 469 ft | 6 kts | 35° |
| 2026-05-04 17:43 | 47.43447 | 19.26067 | 469 ft | 7 kts | 123° |
| 2026-05-04 17:43 | 47.43416 | 19.26121 | 469 ft | 0 kts | 131° |
| 2026-05-04 17:43 | 47.43412 | 19.26128 | 469 ft | 0 kts | 131° |